Portada
METAR-TAF:

METAR-TAF

Aeroports :

Kiel, Alemanya

latitud: 54-23N, longitud: 010-10E, altitud: 31 m

Observació

L'informe es va fer fa 7 hores i 4 minuts, a les 14:50 UTC
Vent 12 kt del Nord/Nord-Oest
Temperatura 4°C
Humitat 75%
Pressió 994 hPa
Visibilitat 10 km o més
Núvols disperses a una alçada de 1500 ft

METAR: EDHK 261450Z 34012KT 9999 SCT015 04/00 Q0994

Hora: 22:54 (21:54 UTC)

Pronòstic

L'informe es va fer fa 7 hores i 54 minuts, a les 14:00 UTC
Pronòstic vàlid del 26 a les 15 UTC al 26 a les 18 UTC
Vent 12 kt del Oest/Nord-Oest
Visibilitat 10 km o més
Núvols disperses a una alçada de 2500 ft
Probabilitat 30% :
Temporalment
l' 26 a les 15 UTC al 26 a les 18 UTC
Visibilitat: 4500 m
Cel ennuvolat a una alçada de 1400 ft, Cumulonimbus.
xàfecs de pluja, Calamarsa petit o neu granulada
Evolucionant progressivament
l' 26 a les 16 UTC al 26 a les 18 UTC
Vent 6 kt del Nord

TAF: EDHK 261400Z 2615/2618 29012KT 9999 SCT025 PROB30 TEMPO 2615/2618 4500 -SHRAGS BKN014CB BECMG 2616/2618 35006KT

Observacions i pronòstics meteorològics de més de 4000 aeroports (METAR i TAF).

Les estacions disponibles són els punts grocs i vermells al mapa.

Posi el ratolí al punt desitjat per veure el nom de l'estació.

Feu clic per veure les observacions i els pronòstics meteorològics.

Per canviar el mapa: feu clic els botons verds amb una creu de color negre per apropar; al botó verd amb un guió per allunyar la imatge; o en les fletxes verdes per a mapes adjacents.


METAR-TAF: